sensor_id;sensor_type;location;lat;lon;timestamp;temperature;humidity
16736;DHT22;17990;49.548;9.730;2023-12-04T00:02:25;-5.80;99.90
16736;DHT22;17990;49.548;9.730;2023-12-04T00:04:51;-5.70;99.90
16736;DHT22;17990;49.548;9.730;2023-12-04T00:07:18;-5.70;99.90
16736;DHT22;17990;49.548;9.730;2023-12-04T00:09:45;-5.70;99.90
16736;DHT22;17990;49.548;9.730;2023-12-04T00:12:11;-5.70;99.90
16736;DHT22;17990;49.548;9.730;2023-12-04T00:14:38;-5.70;99.90
16736;DHT22;17990;49.548;9.730;2023-12-04T00:17:06;-5.70;99.90
16736;DHT22;17990;49.548;9.730;2023-12-04T00:19:33;-5.60;99.90
16736;DHT22;17990;49.548;9.730;2023-12-04T00:22:00;-5.60;99.90
16736;DHT22;17990;49.548;9.730;2023-12-04T00:24:26;-5.60;99.90
16736;DHT22;17990;49.548;9.730;2023-12-04T00:26:53;-5.70;99.90
16736;DHT22;17990;49.548;9.730;2023-12-04T00:29:20;-5.70;99.90
16736;DHT22;17990;49.548;9.730;2023-12-04T00:31:46;-5.70;99.90
16736;DHT22;17990;49.548;9.730;2023-12-04T00:34:14;-5.70;99.90
16736;DHT22;17990;49.548;9.730;2023-12-04T00:36:41;-5.80;99.90
16736;DHT22;17990;49.548;9.730;2023-12-04T00:39:08;-5.80;99.90
16736;DHT22;17990;49.548;9.730;2023-12-04T00:41:34;-5.80;99.90
16736;DHT22;17990;49.548;9.730;2023-12-04T00:44:01;-5.70;99.90
16736;DHT22;17990;49.548;9.730;2023-12-04T00:46:28;-5.80;99.90
16736;DHT22;17990;49.548;9.730;2023-12-04T00:48:54;-5.80;99.90
16736;DHT22;17990;49.548;9.730;2023-12-04T00:51:22;-5.90;99.90
16736;DHT22;17990;49.548;9.730;2023-12-04T00:53:49;-5.90;99.90
16736;DHT22;17990;49.548;9.730;2023-12-04T00:56:16;-5.90;99.90
16736;DHT22;17990;49.548;9.730;2023-12-04T00:58:44;-6.00;99.90
16736;DHT22;17990;49.548;9.730;2023-12-04T01:01:10;-6.00;99.90
16736;DHT22;17990;49.548;9.730;2023-12-04T01:03:37;-6.00;99.90
16736;DHT22;17990;49.548;9.730;2023-12-04T01:06:04;-6.00;99.90
16736;DHT22;17990;49.548;9.730;2023-12-04T01:08:33;-6.00;99.90
16736;DHT22;17990;49.548;9.730;2023-12-04T01:10:59;-5.90;99.90
16736;DHT22;17990;49.548;9.730;2023-12-04T01:13:26;-5.80;99.90
16736;DHT22;17990;49.548;9.730;2023-12-04T01:15:53;-5.80;99.90
16736;DHT22;17990;49.548;9.730;2023-12-04T01:18:19;-5.80;99.90
16736;DHT22;17990;49.548;9.730;2023-12-04T01:20:46;-5.80;99.90
16736;DHT22;17990;49.548;9.730;2023-12-04T01:23:13;-5.90;99.90
16736;DHT22;17990;49.548;9.730;2023-12-04T01:25:41;-5.90;99.90
16736;DHT22;17990;49.548;9.730;2023-12-04T01:28:07;-6.00;99.90
16736;DHT22;17990;49.548;9.730;2023-12-04T01:30:34;-6.00;99.90
16736;DHT22;17990;49.548;9.730;2023-12-04T01:33:01;-6.10;99.90
16736;DHT22;17990;49.548;9.730;2023-12-04T01:35:28;-6.10;99.90
16736;DHT22;17990;49.548;9.730;2023-12-04T01:37:54;-6.10;99.90
16736;DHT22;17990;49.548;9.730;2023-12-04T01:40:21;-6.10;99.90
16736;DHT22;17990;49.548;9.730;2023-12-04T01:42:49;-6.10;99.90
16736;DHT22;17990;49.548;9.730;2023-12-04T01:45:16;-6.10;99.90
16736;DHT22;17990;49.548;9.730;2023-12-04T01:47:42;-6.10;99.90
16736;DHT22;17990;49.548;9.730;2023-12-04T01:50:10;-6.20;99.90
16736;DHT22;17990;49.548;9.730;2023-12-04T01:52:36;-6.10;99.90
16736;DHT22;17990;49.548;9.730;2023-12-04T01:55:04;-6.10;99.90
16736;DHT22;17990;49.548;9.730;2023-12-04T01:57:32;-6.10;99.90
16736;DHT22;17990;49.548;9.730;2023-12-04T02:00:00;-6.10;99.90
16736;DHT22;17990;49.548;9.730;2023-12-04T02:02:27;-6.20;99.90
16736;DHT22;17990;49.548;9.730;2023-12-04T02:04:55;-6.20;99.90
16736;DHT22;17990;49.548;9.730;2023-12-04T02:07:23;-6.30;99.90
16736;DHT22;17990;49.548;9.730;2023-12-04T02:09:50;-6.40;99.90
16736;DHT22;17990;49.548;9.730;2023-12-04T02:12:17;-6.40;99.90
16736;DHT22;17990;49.548;9.730;2023-12-04T02:14:44;-6.40;99.90
16736;DHT22;17990;49.548;9.730;2023-12-04T02:17:12;-6.30;99.90
16736;DHT22;17990;49.548;9.730;2023-12-04T02:19:39;-6.40;99.90
16736;DHT22;17990;49.548;9.730;2023-12-04T02:22:06;-6.40;99.90
16736;DHT22;17990;49.548;9.730;2023-12-04T02:24:34;-6.40;99.90
16736;DHT22;17990;49.548;9.730;2023-12-04T02:27:07;-6.40;99.90
16736;DHT22;17990;49.548;9.730;2023-12-04T02:29:41;-6.50;99.90
16736;DHT22;17990;49.548;9.730;2023-12-04T02:32:12;-6.50;99.90
16736;DHT22;17990;49.548;9.730;2023-12-04T02:34:42;-6.50;99.90
16736;DHT22;17990;49.548;9.730;2023-12-04T02:37:11;-6.50;99.90
16736;DHT22;17990;49.548;9.730;2023-12-04T02:39:39;-6.40;99.90
16736;DHT22;17990;49.548;9.730;2023-12-04T02:42:06;-6.30;99.90
16736;DHT22;17990;49.548;9.730;2023-12-04T02:44:33;-6.10;99.90
16736;DHT22;17990;49.548;9.730;2023-12-04T02:47:00;-6.10;99.90
16736;DHT22;17990;49.548;9.730;2023-12-04T02:49:26;-6.00;99.90
16736;DHT22;17990;49.548;9.730;2023-12-04T02:51:53;-6.00;99.90
16736;DHT22;17990;49.548;9.730;2023-12-04T02:54:20;-6.00;99.90
16736;DHT22;17990;49.548;9.730;2023-12-04T02:56:48;-6.00;99.90
16736;DHT22;17990;49.548;9.730;2023-12-04T02:59:15;-5.80;99.90
16736;DHT22;17990;49.548;9.730;2023-12-04T03:01:42;-5.80;99.90
16736;DHT22;17990;49.548;9.730;2023-12-04T03:04:09;-5.80;99.90
16736;DHT22;17990;49.548;9.730;2023-12-04T03:06:36;-5.80;99.90
16736;DHT22;17990;49.548;9.730;2023-12-04T03:09:03;-5.70;99.90
16736;DHT22;17990;49.548;9.730;2023-12-04T03:11:30;-5.70;99.90
16736;DHT22;17990;49.548;9.730;2023-12-04T03:14:00;-5.70;99.90
16736;DHT22;17990;49.548;9.730;2023-12-04T03:16:27;-5.70;99.90
16736;DHT22;17990;49.548;9.730;2023-12-04T03:18:53;-5.70;99.90
16736;DHT22;17990;49.548;9.730;2023-12-04T03:21:20;-5.70;99.90
16736;DHT22;17990;49.548;9.730;2023-12-04T03:23:47;-5.70;99.90
16736;DHT22;17990;49.548;9.730;2023-12-04T03:26:14;-5.70;99.90
16736;DHT22;17990;49.548;9.730;2023-12-04T03:28:40;-5.60;99.90
16736;DHT22;17990;49.548;9.730;2023-12-04T03:31:08;-5.50;99.90
16736;DHT22;17990;49.548;9.730;2023-12-04T03:33:35;-5.50;99.90
16736;DHT22;17990;49.548;9.730;2023-12-04T03:36:02;-5.40;99.90
16736;DHT22;17990;49.548;9.730;2023-12-04T03:38:29;-5.40;99.90
16736;DHT22;17990;49.548;9.730;2023-12-04T03:40:56;-5.40;99.90
16736;DHT22;17990;49.548;9.730;2023-12-04T03:43:22;-5.40;99.90
16736;DHT22;17990;49.548;9.730;2023-12-04T03:45:49;-5.40;99.90
16736;DHT22;17990;49.548;9.730;2023-12-04T03:48:17;-5.50;99.90
16736;DHT22;17990;49.548;9.730;2023-12-04T03:50:44;-5.50;99.90
16736;DHT22;17990;49.548;9.730;2023-12-04T03:53:12;-5.40;99.90
16736;DHT22;17990;49.548;9.730;2023-12-04T03:55:38;-5.40;99.90
16736;DHT22;17990;49.548;9.730;2023-12-04T03:58:05;-5.30;99.90
16736;DHT22;17990;49.548;9.730;2023-12-04T04:00:32;-5.30;99.90
16736;DHT22;17990;49.548;9.730;2023-12-04T04:02:59;-5.20;99.90
16736;DHT22;17990;49.548;9.730;2023-12-04T04:05:27;-5.20;99.90
16736;DHT22;17990;49.548;9.730;2023-12-04T04:07:54;-5.20;99.90
16736;DHT22;17990;49.548;9.730;2023-12-04T04:10:20;-5.30;99.90
16736;DHT22;17990;49.548;9.730;2023-12-04T04:12:47;-5.20;99.90
16736;DHT22;17990;49.548;9.730;2023-12-04T04:15:14;-5.10;99.90
16736;DHT22;17990;49.548;9.730;2023-12-04T04:17:41;-5.10;99.90
16736;DHT22;17990;49.548;9.730;2023-12-04T04:20:09;-5.10;99.90
16736;DHT22;17990;49.548;9.730;2023-12-04T04:22:38;-5.10;99.90
16736;DHT22;17990;49.548;9.730;2023-12-04T04:25:07;-5.10;99.90
16736;DHT22;17990;49.548;9.730;2023-12-04T04:27:34;-5.10;99.90
16736;DHT22;17990;49.548;9.730;2023-12-04T04:30:01;-5.20;99.90
16736;DHT22;17990;49.548;9.730;2023-12-04T04:32:28;-5.20;99.90
16736;DHT22;17990;49.548;9.730;2023-12-04T04:34:55;-5.20;99.90
16736;DHT22;17990;49.548;9.730;2023-12-04T04:37:21;-5.20;99.90
16736;DHT22;17990;49.548;9.730;2023-12-04T04:39:49;-5.30;99.90
16736;DHT22;17990;49.548;9.730;2023-12-04T04:42:16;-5.30;99.90
16736;DHT22;17990;49.548;9.730;2023-12-04T04:44:43;-5.30;99.90
16736;DHT22;17990;49.548;9.730;2023-12-04T04:47:09;-5.30;99.90
16736;DHT22;17990;49.548;9.730;2023-12-04T04:49:36;-5.30;99.90
16736;DHT22;17990;49.548;9.730;2023-12-04T04:52:03;-5.20;99.90
16736;DHT22;17990;49.548;9.730;2023-12-04T04:54:30;-5.10;99.90
16736;DHT22;17990;49.548;9.730;2023-12-04T04:56:58;-5.10;99.90
16736;DHT22;17990;49.548;9.730;2023-12-04T05:02:47;-4.90;99.90
16736;DHT22;17990;49.548;9.730;2023-12-04T05:05:14;-4.80;99.90
16736;DHT22;17990;49.548;9.730;2023-12-04T05:07:41;-4.80;99.90
16736;DHT22;17990;49.548;9.730;2023-12-04T05:10:08;-4.70;99.90
16736;DHT22;17990;49.548;9.730;2023-12-04T05:12:37;-4.60;99.90
16736;DHT22;17990;49.548;9.730;2023-12-04T05:15:04;-4.60;99.90
16736;DHT22;17990;49.548;9.730;2023-12-04T05:17:32;-4.60;99.90
16736;DHT22;17990;49.548;9.730;2023-12-04T05:19:58;-4.50;99.90
16736;DHT22;17990;49.548;9.730;2023-12-04T05:22:25;-4.50;99.90
16736;DHT22;17990;49.548;9.730;2023-12-04T05:24:52;-4.50;99.90
16736;DHT22;17990;49.548;9.730;2023-12-04T05:27:19;-4.50;99.90
16736;DHT22;17990;49.548;9.730;2023-12-04T05:29:47;-4.50;99.90
16736;DHT22;17990;49.548;9.730;2023-12-04T05:32:14;-4.40;99.90
16736;DHT22;17990;49.548;9.730;2023-12-04T05:34:40;-4.40;99.90
16736;DHT22;17990;49.548;9.730;2023-12-04T05:37:07;-4.40;99.90
16736;DHT22;17990;49.548;9.730;2023-12-04T05:39:34;-4.40;99.90
16736;DHT22;17990;49.548;9.730;2023-12-04T05:42:00;-4.40;99.90
16736;DHT22;17990;49.548;9.730;2023-12-04T05:44:28;-4.40;99.90
16736;DHT22;17990;49.548;9.730;2023-12-04T05:46:56;-4.40;99.90
16736;DHT22;17990;49.548;9.730;2023-12-04T05:49:23;-4.50;99.90
16736;DHT22;17990;49.548;9.730;2023-12-04T05:51:50;-4.60;99.90
16736;DHT22;17990;49.548;9.730;2023-12-04T05:54:17;-4.70;99.90
16736;DHT22;17990;49.548;9.730;2023-12-04T05:56:43;-4.70;99.90
16736;DHT22;17990;49.548;9.730;2023-12-04T05:59:10;-4.70;99.90
16736;DHT22;17990;49.548;9.730;2023-12-04T06:01:37;-4.70;99.90
16736;DHT22;17990;49.548;9.730;2023-12-04T06:04:05;-4.70;99.90
16736;DHT22;17990;49.548;9.730;2023-12-04T06:06:32;-4.70;99.90
16736;DHT22;17990;49.548;9.730;2023-12-04T06:08:58;-4.60;99.90
16736;DHT22;17990;49.548;9.730;2023-12-04T06:11:25;-4.70;99.90
16736;DHT22;17990;49.548;9.730;2023-12-04T06:13:52;-4.70;99.90
16736;DHT22;17990;49.548;9.730;2023-12-04T06:16:18;-4.60;99.90
16736;DHT22;17990;49.548;9.730;2023-12-04T06:18:45;-4.60;99.90
16736;DHT22;17990;49.548;9.730;2023-12-04T06:21:13;-4.50;99.90
16736;DHT22;17990;49.548;9.730;2023-12-04T06:23:41;-4.50;99.90
16736;DHT22;17990;49.548;9.730;2023-12-04T06:26:09;-4.50;99.90
16736;DHT22;17990;49.548;9.730;2023-12-04T06:28:36;-4.40;99.90
16736;DHT22;17990;49.548;9.730;2023-12-04T06:31:04;-4.40;99.90
16736;DHT22;17990;49.548;9.730;2023-12-04T06:33:32;-4.40;99.90
16736;DHT22;17990;49.548;9.730;2023-12-04T06:35:59;-4.40;99.90
16736;DHT22;17990;49.548;9.730;2023-12-04T06:38:32;-4.40;99.90
16736;DHT22;17990;49.548;9.730;2023-12-04T06:40:59;-4.40;99.90
16736;DHT22;17990;49.548;9.730;2023-12-04T06:43:27;-4.40;99.90
16736;DHT22;17990;49.548;9.730;2023-12-04T06:45:54;-4.40;99.90
16736;DHT22;17990;49.548;9.730;2023-12-04T06:48:23;-4.40;99.90
16736;DHT22;17990;49.548;9.730;2023-12-04T06:50:49;-4.50;99.90
16736;DHT22;17990;49.548;9.730;2023-12-04T06:53:16;-4.50;99.90
16736;DHT22;17990;49.548;9.730;2023-12-04T06:55:44;-4.60;99.90
16736;DHT22;17990;49.548;9.730;2023-12-04T06:58:11;-4.70;99.90
16736;DHT22;17990;49.548;9.730;2023-12-04T07:00:38;-4.80;99.90
16736;DHT22;17990;49.548;9.730;2023-12-04T07:03:04;-4.80;99.90
16736;DHT22;17990;49.548;9.730;2023-12-04T07:05:31;-4.90;99.90
16736;DHT22;17990;49.548;9.730;2023-12-04T07:07:58;-4.90;99.90
16736;DHT22;17990;49.548;9.730;2023-12-04T07:10:24;-4.80;99.90
16736;DHT22;17990;49.548;9.730;2023-12-04T07:12:52;-4.80;99.90
16736;DHT22;17990;49.548;9.730;2023-12-04T07:15:19;-4.70;99.90
16736;DHT22;17990;49.548;9.730;2023-12-04T07:17:46;-4.60;99.90
16736;DHT22;17990;49.548;9.730;2023-12-04T07:20:12;-4.60;99.90
16736;DHT22;17990;49.548;9.730;2023-12-04T07:22:39;-4.60;99.90
16736;DHT22;17990;49.548;9.730;2023-12-04T07:25:07;-4.60;99.90
16736;DHT22;17990;49.548;9.730;2023-12-04T07:27:33;-4.60;99.90
16736;DHT22;17990;49.548;9.730;2023-12-04T07:30:02;-4.60;99.90
16736;DHT22;17990;49.548;9.730;2023-12-04T07:32:29;-4.50;99.90
16736;DHT22;17990;49.548;9.730;2023-12-04T07:34:58;-4.50;99.90
16736;DHT22;17990;49.548;9.730;2023-12-04T07:37:25;-4.50;99.90
16736;DHT22;17990;49.548;9.730;2023-12-04T07:39:52;-4.40;99.90
16736;DHT22;17990;49.548;9.730;2023-12-04T07:42:18;-4.40;99.90
16736;DHT22;17990;49.548;9.730;2023-12-04T07:44:45;-4.30;99.90
16736;DHT22;17990;49.548;9.730;2023-12-04T07:47:13;-4.30;99.90
16736;DHT22;17990;49.548;9.730;2023-12-04T07:49:41;-4.20;99.90
16736;DHT22;17990;49.548;9.730;2023-12-04T07:52:08;-4.10;99.90
16736;DHT22;17990;49.548;9.730;2023-12-04T07:54:36;-4.00;99.90
16736;DHT22;17990;49.548;9.730;2023-12-04T07:57:03;-4.10;99.90
16736;DHT22;17990;49.548;9.730;2023-12-04T07:59:30;-4.10;99.90
16736;DHT22;17990;49.548;9.730;2023-12-04T08:01:57;-4.00;99.90
16736;DHT22;17990;49.548;9.730;2023-12-04T08:04:25;-3.80;99.90
16736;DHT22;17990;49.548;9.730;2023-12-04T08:06:52;-3.70;99.90
16736;DHT22;17990;49.548;9.730;2023-12-04T08:09:19;-3.60;99.90
16736;DHT22;17990;49.548;9.730;2023-12-04T08:11:46;-3.50;99.90
16736;DHT22;17990;49.548;9.730;2023-12-04T08:14:13;-3.40;99.90
16736;DHT22;17990;49.548;9.730;2023-12-04T08:16:41;-3.40;99.90
16736;DHT22;17990;49.548;9.730;2023-12-04T08:19:08;-3.40;99.90
16736;DHT22;17990;49.548;9.730;2023-12-04T08:21:36;-3.20;99.90
16736;DHT22;17990;49.548;9.730;2023-12-04T08:24:03;-3.10;99.90
16736;DHT22;17990;49.548;9.730;2023-12-04T08:26:30;-3.00;99.90
16736;DHT22;17990;49.548;9.730;2023-12-04T08:28:56;-2.90;99.90
16736;DHT22;17990;49.548;9.730;2023-12-04T08:31:23;-2.80;99.90
16736;DHT22;17990;49.548;9.730;2023-12-04T08:33:50;-2.60;99.90
16736;DHT22;17990;49.548;9.730;2023-12-04T08:36:16;-2.50;99.90
16736;DHT22;17990;49.548;9.730;2023-12-04T08:38:44;-2.40;99.90
16736;DHT22;17990;49.548;9.730;2023-12-04T08:41:11;-2.40;99.90
16736;DHT22;17990;49.548;9.730;2023-12-04T08:43:38;-2.20;99.90
16736;DHT22;17990;49.548;9.730;2023-12-04T08:46:05;-2.10;99.90
16736;DHT22;17990;49.548;9.730;2023-12-04T08:48:32;-2.20;99.90
16736;DHT22;17990;49.548;9.730;2023-12-04T08:50:59;-2.20;99.90
16736;DHT22;17990;49.548;9.730;2023-12-04T08:53:26;-2.10;99.90
16736;DHT22;17990;49.548;9.730;2023-12-04T08:55:54;-2.00;99.90
16736;DHT22;17990;49.548;9.730;2023-12-04T08:58:22;-1.90;99.90
16736;DHT22;17990;49.548;9.730;2023-12-04T09:00:49;-1.70;99.90
16736;DHT22;17990;49.548;9.730;2023-12-04T09:03:16;-1.70;99.90
16736;DHT22;17990;49.548;9.730;2023-12-04T09:05:44;-1.60;99.90
16736;DHT22;17990;49.548;9.730;2023-12-04T09:08:11;-1.50;99.90
16736;DHT22;17990;49.548;9.730;2023-12-04T09:10:38;-1.40;99.90
16736;DHT22;17990;49.548;9.730;2023-12-04T09:13:06;-1.30;99.90
16736;DHT22;17990;49.548;9.730;2023-12-04T09:15:33;-1.10;99.90
16736;DHT22;17990;49.548;9.730;2023-12-04T09:17:59;-0.90;99.90
16736;DHT22;17990;49.548;9.730;2023-12-04T09:20:26;-0.90;99.90
16736;DHT22;17990;49.548;9.730;2023-12-04T09:22:53;-0.80;99.90
16736;DHT22;17990;49.548;9.730;2023-12-04T09:25:20;-0.80;99.90
16736;DHT22;17990;49.548;9.730;2023-12-04T09:27:47;-0.80;99.90
16736;DHT22;17990;49.548;9.730;2023-12-04T09:30:15;-0.70;99.90
16736;DHT22;17990;49.548;9.730;2023-12-04T09:32:42;-0.60;99.90
16736;DHT22;17990;49.548;9.730;2023-12-04T09:35:10;-0.40;99.90
16736;DHT22;17990;49.548;9.730;2023-12-04T09:37:36;-0.30;99.90
16736;DHT22;17990;49.548;9.730;2023-12-04T09:40:04;-0.30;99.90
16736;DHT22;17990;49.548;9.730;2023-12-04T09:42:33;-0.30;99.90
16736;DHT22;17990;49.548;9.730;2023-12-04T09:45:01;-0.30;99.90
16736;DHT22;17990;49.548;9.730;2023-12-04T09:47:29;-0.30;99.90
16736;DHT22;17990;49.548;9.730;2023-12-04T09:49:56;-0.20;99.90
16736;DHT22;17990;49.548;9.730;2023-12-04T09:52:23;0.00;99.90
16736;DHT22;17990;49.548;9.730;2023-12-04T09:54:50;0.30;99.90
16736;DHT22;17990;49.548;9.730;2023-12-04T09:57:17;0.30;99.90
16736;DHT22;17990;49.548;9.730;2023-12-04T09:59:44;0.50;99.90
16736;DHT22;17990;49.548;9.730;2023-12-04T10:02:11;0.50;99.90
16736;DHT22;17990;49.548;9.730;2023-12-04T10:04:40;0.70;99.90
16736;DHT22;17990;49.548;9.730;2023-12-04T10:07:07;0.50;99.90
16736;DHT22;17990;49.548;9.730;2023-12-04T10:09:34;0.30;99.90
16736;DHT22;17990;49.548;9.730;2023-12-04T10:12:01;0.20;99.90
16736;DHT22;17990;49.548;9.730;2023-12-04T10:14:28;0.10;99.90
16736;DHT22;17990;49.548;9.730;2023-12-04T10:16:55;0.30;99.90
16736;DHT22;17990;49.548;9.730;2023-12-04T10:19:24;0.40;99.90
16736;DHT22;17990;49.548;9.730;2023-12-04T10:21:54;0.50;99.90
16736;DHT22;17990;49.548;9.730;2023-12-04T10:24:28;0.50;99.90
16736;DHT22;17990;49.548;9.730;2023-12-04T10:26:55;0.40;99.90
16736;DHT22;17990;49.548;9.730;2023-12-04T10:29:23;0.50;99.90
16736;DHT22;17990;49.548;9.730;2023-12-04T10:31:50;0.50;99.90
16736;DHT22;17990;49.548;9.730;2023-12-04T10:34:18;0.60;99.90
16736;DHT22;17990;49.548;9.730;2023-12-04T10:36:46;0.60;99.90
16736;DHT22;17990;49.548;9.730;2023-12-04T10:39:14;0.40;99.90
16736;DHT22;17990;49.548;9.730;2023-12-04T10:41:43;0.20;99.90
16736;DHT22;17990;49.548;9.730;2023-12-04T10:44:12;0.30;99.90
16736;DHT22;17990;49.548;9.730;2023-12-04T10:46:41;0.50;99.90
16736;DHT22;17990;49.548;9.730;2023-12-04T10:49:09;0.60;99.90
16736;DHT22;17990;49.548;9.730;2023-12-04T10:51:38;0.70;99.90
16736;DHT22;17990;49.548;9.730;2023-12-04T10:54:04;0.80;99.90
16736;DHT22;17990;49.548;9.730;2023-12-04T10:56:36;0.80;99.90
16736;DHT22;17990;49.548;9.730;2023-12-04T10:59:06;0.80;99.90
16736;DHT22;17990;49.548;9.730;2023-12-04T11:01:36;0.80;99.90
16736;DHT22;17990;49.548;9.730;2023-12-04T11:04:05;0.70;99.90
16736;DHT22;17990;49.548;9.730;2023-12-04T11:06:35;0.70;99.90
16736;DHT22;17990;49.548;9.730;2023-12-04T11:09:06;0.70;99.90
16736;DHT22;17990;49.548;9.730;2023-12-04T11:11:35;0.60;99.90
16736;DHT22;17990;49.548;9.730;2023-12-04T11:14:04;0.60;99.90
16736;DHT22;17990;49.548;9.730;2023-12-04T11:16:38;0.60;99.90
16736;DHT22;17990;49.548;9.730;2023-12-04T11:19:11;0.80;99.90
16736;DHT22;17990;49.548;9.730;2023-12-04T11:21:43;0.80;99.90
16736;DHT22;17990;49.548;9.730;2023-12-04T11:24:12;0.80;99.90
16736;DHT22;17990;49.548;9.730;2023-12-04T11:26:40;0.80;99.90
16736;DHT22;17990;49.548;9.730;2023-12-04T11:29:08;0.80;99.90
16736;DHT22;17990;49.548;9.730;2023-12-04T11:31:36;1.00;99.90
16736;DHT22;17990;49.548;9.730;2023-12-04T11:34:03;1.10;99.90
16736;DHT22;17990;49.548;9.730;2023-12-04T11:36:30;1.20;99.90
16736;DHT22;17990;49.548;9.730;2023-12-04T11:38:57;1.30;99.90
16736;DHT22;17990;49.548;9.730;2023-12-04T11:41:24;1.30;99.90
16736;DHT22;17990;49.548;9.730;2023-12-04T11:43:55;1.40;99.90
16736;DHT22;17990;49.548;9.730;2023-12-04T11:46:23;1.50;99.90
16736;DHT22;17990;49.548;9.730;2023-12-04T11:48:51;1.60;99.90
16736;DHT22;17990;49.548;9.730;2023-12-04T11:51:47;1.60;99.90
16736;DHT22;17990;49.548;9.730;2023-12-04T11:54:18;1.40;99.90
16736;DHT22;17990;49.548;9.730;2023-12-04T11:56:59;1.40;99.90
16736;DHT22;17990;49.548;9.730;2023-12-04T11:59:28;1.50;99.90
16736;DHT22;17990;49.548;9.730;2023-12-04T12:01:55;1.40;99.90
16736;DHT22;17990;49.548;9.730;2023-12-04T12:04:23;1.40;99.90
16736;DHT22;17990;49.548;9.730;2023-12-04T12:06:50;1.50;99.90
16736;DHT22;17990;49.548;9.730;2023-12-04T12:09:17;1.60;99.90
16736;DHT22;17990;49.548;9.730;2023-12-04T12:11:44;1.70;99.90
16736;DHT22;17990;49.548;9.730;2023-12-04T12:14:11;1.70;99.90
16736;DHT22;17990;49.548;9.730;2023-12-04T12:16:40;1.60;99.90
16736;DHT22;17990;49.548;9.730;2023-12-04T12:19:07;1.50;99.90
16736;DHT22;17990;49.548;9.730;2023-12-04T12:21:33;1.40;99.90
16736;DHT22;17990;49.548;9.730;2023-12-04T12:24:00;1.40;99.90
16736;DHT22;17990;49.548;9.730;2023-12-04T12:26:28;1.40;99.90
16736;DHT22;17990;49.548;9.730;2023-12-04T12:28:54;1.30;99.90
16736;DHT22;17990;49.548;9.730;2023-12-04T12:31:21;1.40;99.90
16736;DHT22;17990;49.548;9.730;2023-12-04T12:33:49;1.40;99.90
16736;DHT22;17990;49.548;9.730;2023-12-04T12:36:17;1.30;99.90
16736;DHT22;17990;49.548;9.730;2023-12-04T12:38:44;1.40;99.90
16736;DHT22;17990;49.548;9.730;2023-12-04T12:41:15;1.50;99.90
16736;DHT22;17990;49.548;9.730;2023-12-04T12:43:42;1.50;99.90
16736;DHT22;17990;49.548;9.730;2023-12-04T12:46:09;1.60;99.90
16736;DHT22;17990;49.548;9.730;2023-12-04T12:48:36;1.60;99.90
16736;DHT22;17990;49.548;9.730;2023-12-04T12:51:06;1.50;99.90
16736;DHT22;17990;49.548;9.730;2023-12-04T12:53:36;1.10;99.90
16736;DHT22;17990;49.548;9.730;2023-12-04T12:56:04;0.90;99.90
16736;DHT22;17990;49.548;9.730;2023-12-04T12:58:31;0.70;99.90
16736;DHT22;17990;49.548;9.730;2023-12-04T13:00:59;0.70;99.90
16736;DHT22;17990;49.548;9.730;2023-12-04T13:03:26;0.70;99.90
16736;DHT22;17990;49.548;9.730;2023-12-04T13:05:54;0.70;99.90
16736;DHT22;17990;49.548;9.730;2023-12-04T13:08:22;0.80;99.90
16736;DHT22;17990;49.548;9.730;2023-12-04T13:10:49;0.90;99.90
16736;DHT22;17990;49.548;9.730;2023-12-04T13:13:16;0.90;99.90
16736;DHT22;17990;49.548;9.730;2023-12-04T13:15:42;1.00;99.90
16736;DHT22;17990;49.548;9.730;2023-12-04T13:18:09;0.90;99.90
16736;DHT22;17990;49.548;9.730;2023-12-04T13:20:36;1.10;99.90
16736;DHT22;17990;49.548;9.730;2023-12-04T13:23:03;1.10;99.90
16736;DHT22;17990;49.548;9.730;2023-12-04T13:25:31;1.00;99.90
16736;DHT22;17990;49.548;9.730;2023-12-04T13:27:57;1.00;99.90
16736;DHT22;17990;49.548;9.730;2023-12-04T13:30:24;1.00;99.90
16736;DHT22;17990;49.548;9.730;2023-12-04T13:32:51;0.90;99.90
16736;DHT22;17990;49.548;9.730;2023-12-04T13:35:18;1.00;99.90
16736;DHT22;17990;49.548;9.730;2023-12-04T13:37:45;0.90;99.90
16736;DHT22;17990;49.548;9.730;2023-12-04T13:40:12;0.80;99.90
16736;DHT22;17990;49.548;9.730;2023-12-04T13:42:42;0.70;99.90
16736;DHT22;17990;49.548;9.730;2023-12-04T13:45:27;0.60;99.90
16736;DHT22;17990;49.548;9.730;2023-12-04T13:47:54;0.50;99.90
16736;DHT22;17990;49.548;9.730;2023-12-04T13:50:20;0.50;99.90
16736;DHT22;17990;49.548;9.730;2023-12-04T13:52:47;0.40;99.90
16736;DHT22;17990;49.548;9.730;2023-12-04T13:55:20;0.20;99.90
16736;DHT22;17990;49.548;9.730;2023-12-04T13:58:03;0.10;99.90
16736;DHT22;17990;49.548;9.730;2023-12-04T14:00:35;0.00;99.90
16736;DHT22;17990;49.548;9.730;2023-12-04T14:03:02;0.10;99.90
16736;DHT22;17990;49.548;9.730;2023-12-04T14:05:30;0.10;99.90
16736;DHT22;17990;49.548;9.730;2023-12-04T14:07:57;0.10;99.90
16736;DHT22;17990;49.548;9.730;2023-12-04T14:10:24;0.10;99.90
16736;DHT22;17990;49.548;9.730;2023-12-04T14:12:52;0.00;99.90
16736;DHT22;17990;49.548;9.730;2023-12-04T14:15:20;0.00;99.90
16736;DHT22;17990;49.548;9.730;2023-12-04T14:17:47;-0.10;99.90
16736;DHT22;17990;49.548;9.730;2023-12-04T14:20:13;-0.10;99.90
16736;DHT22;17990;49.548;9.730;2023-12-04T14:22:44;-0.10;99.90
16736;DHT22;17990;49.548;9.730;2023-12-04T14:25:11;-0.10;99.90
16736;DHT22;17990;49.548;9.730;2023-12-04T14:27:37;-0.10;99.90
16736;DHT22;17990;49.548;9.730;2023-12-04T14:30:06;-0.10;99.90
16736;DHT22;17990;49.548;9.730;2023-12-04T14:32:35;0.00;99.90
16736;DHT22;17990;49.548;9.730;2023-12-04T14:35:03;0.00;99.90
16736;DHT22;17990;49.548;9.730;2023-12-04T14:37:30;0.10;99.90
16736;DHT22;17990;49.548;9.730;2023-12-04T14:39:57;0.10;99.90
16736;DHT22;17990;49.548;9.730;2023-12-04T14:42:23;0.10;99.90
16736;DHT22;17990;49.548;9.730;2023-12-04T14:44:50;0.10;99.90
16736;DHT22;17990;49.548;9.730;2023-12-04T14:47:17;0.10;99.90
16736;DHT22;17990;49.548;9.730;2023-12-04T14:49:45;0.00;99.90
16736;DHT22;17990;49.548;9.730;2023-12-04T14:52:13;0.00;99.90
16736;DHT22;17990;49.548;9.730;2023-12-04T14:54:41;0.10;99.90
16736;DHT22;17990;49.548;9.730;2023-12-04T14:57:36;0.10;99.90
16736;DHT22;17990;49.548;9.730;2023-12-04T15:00:23;0.10;99.90
16736;DHT22;17990;49.548;9.730;2023-12-04T15:03:13;0.10;99.90
16736;DHT22;17990;49.548;9.730;2023-12-04T15:06:08;0.10;99.90
16736;DHT22;17990;49.548;9.730;2023-12-04T15:09:03;0.00;99.90
16736;DHT22;17990;49.548;9.730;2023-12-04T15:11:47;0.00;99.90
16736;DHT22;17990;49.548;9.730;2023-12-04T15:14:40;0.00;99.90
16736;DHT22;17990;49.548;9.730;2023-12-04T15:17:15;0.00;99.90
16736;DHT22;17990;49.548;9.730;2023-12-04T15:19:53;0.00;99.90
16736;DHT22;17990;49.548;9.730;2023-12-04T15:22:44;0.00;99.90
16736;DHT22;17990;49.548;9.730;2023-12-04T15:25:10;0.00;99.90
16736;DHT22;17990;49.548;9.730;2023-12-04T15:27:37;0.00;99.90
16736;DHT22;17990;49.548;9.730;2023-12-04T15:30:04;-0.10;99.90
16736;DHT22;17990;49.548;9.730;2023-12-04T15:32:33;-0.10;99.90
16736;DHT22;17990;49.548;9.730;2023-12-04T15:34:59;-0.10;99.90
16736;DHT22;17990;49.548;9.730;2023-12-04T15:37:25;-0.20;99.90
16736;DHT22;17990;49.548;9.730;2023-12-04T15:39:53;-0.30;99.90
16736;DHT22;17990;49.548;9.730;2023-12-04T15:42:20;-0.20;99.90
16736;DHT22;17990;49.548;9.730;2023-12-04T15:44:46;-0.20;99.90